Terminal Aerodrome Forecast
Issued by NWS Chicago, IL

Home | Current Version | Previous Version | Graphics & Text | Print | Product List | Glossary On
Versions: 1 2 3 4 5 6 7 8 9 10 11 12 13 14 15 16 17 18 19 20 21 22 23 24 25 26 27 28 29 30 31
833
FTUS43 KLOT 231738
TAFRFD
TAF
KRFD 231738Z 2318/2418 18008KT P6SM VCTS BKN035CB BKN120
      TEMPO 2319/2321 3SM TSRA OVC015CB
     FM232200 18007KT P6SM BKN035 BKN100
     FM240100 15004KT P6SM SCT060 BKN250
     FM240900 18006KT 2SM TSRA OVC015CB
     FM241200 20010G16KT P6SM BKN030=

USA.gov is the U.S. government's official web portal to all federal, state and local government web resources and services.